createdAt,value
2017-12-30T00:00:00.026Z,4.00
2017-12-30T00:02:03.510Z,5.20
2017-12-30T00:04:06.976Z,4.07
2017-12-30T00:06:10.453Z,4.80
2017-12-30T00:08:13.871Z,4.80
2017-12-30T00:10:18.946Z,3.70
2017-12-30T00:12:22.424Z,4.33
2017-12-30T00:14:27.458Z,4.50
2017-12-30T00:16:31.687Z,3.77
2017-12-30T00:18:35.094Z,4.07
2017-12-30T00:20:38.525Z,4.50
2017-12-30T00:22:42.747Z,4.07
2017-12-30T00:24:46.569Z,3.50
2017-12-30T00:26:50.760Z,4.33
2017-12-30T00:28:54.218Z,5.43
2017-12-30T00:30:57.623Z,4.53
2017-12-30T00:33:01.123Z,4.43
2017-12-30T00:35:04.561Z,5.57
2017-12-30T00:37:08.187Z,4.10
2017-12-30T00:39:11.712Z,4.20
2017-12-30T00:41:15.206Z,4.73
2017-12-30T00:43:18.655Z,4.10
2017-12-30T00:45:22.115Z,4.33
2017-12-30T00:47:25.536Z,4.70
2017-12-30T00:49:30.802Z,5.40
2017-12-30T00:51:41.728Z,3.50
2017-12-30T00:53:45.667Z,4.03
2017-12-30T00:55:49.658Z,5.13
2017-12-30T00:57:53.940Z,3.80
2017-12-30T00:59:57.400Z,4.13
2017-12-30T01:02:00.932Z,4.20
2017-12-30T01:04:05.146Z,3.43
2017-12-30T01:06:09.446Z,3.47
2017-12-30T01:08:13.758Z,4.27
2017-12-30T01:10:18.019Z,4.37
2017-12-30T01:12:21.434Z,4.53
2017-12-30T01:14:24.877Z,4.27
2017-12-30T01:16:29.619Z,3.00
2017-12-30T01:18:33.059Z,4.17
2017-12-30T01:20:36.554Z,3.00
2017-12-30T01:22:39.973Z,3.53
2017-12-30T01:24:44.178Z,4.00
2017-12-30T01:26:47.616Z,3.57
2017-12-30T01:28:51.118Z,3.40
2017-12-30T01:30:54.583Z,3.90
2017-12-30T01:32:58.781Z,3.77
2017-12-30T01:35:02.174Z,4.10
2017-12-30T01:37:05.614Z,3.40
2017-12-30T01:39:09.049Z,3.80
2017-12-30T01:41:12.517Z,3.93
2017-12-30T01:43:15.949Z,5.60
2017-12-30T01:45:19.393Z,3.70
2017-12-30T01:47:22.836Z,5.47
2017-12-30T01:49:26.248Z,3.93
2017-12-30T01:51:29.695Z,4.80
2017-12-30T01:53:33.117Z,4.20
2017-12-30T01:55:36.532Z,4.37
2017-12-30T01:57:39.984Z,3.67
2017-12-30T01:59:43.389Z,4.00
2017-12-30T02:01:46.844Z,4.10
2017-12-30T02:03:51.469Z,4.40
2017-12-30T02:05:54.916Z,5.00
2017-12-30T02:07:58.374Z,4.30
2017-12-30T02:10:01.804Z,3.77
2017-12-30T02:12:06.019Z,4.30
2017-12-30T02:14:10.946Z,4.93
2017-12-30T02:16:14.993Z,4.27
2017-12-30T02:18:18.499Z,3.23
2017-12-30T02:20:21.935Z,4.83
2017-12-30T02:22:26.488Z,5.80
2017-12-30T02:24:30.019Z,4.07
2017-12-30T02:26:33.477Z,4.83
2017-12-30T02:28:36.942Z,3.83
2017-12-30T02:30:41.793Z,4.90
2017-12-30T02:32:45.230Z,4.53
2017-12-30T02:34:48.745Z,4.97
2017-12-30T02:36:52.927Z,4.37
2017-12-30T02:38:56.687Z,4.63
2017-12-30T02:41:00.126Z,5.13
2017-12-30T02:43:03.569Z,4.70
2017-12-30T02:45:07.036Z,3.30
2017-12-30T02:47:10.480Z,4.13
2017-12-30T02:49:13.985Z,5.20
2017-12-30T02:51:18.290Z,3.70
2017-12-30T02:53:21.773Z,6.20
2017-12-30T02:55:25.204Z,5.80
2017-12-30T02:57:29.425Z,4.30
2017-12-30T02:59:33.227Z,3.50
2017-12-30T03:01:36.674Z,6.90
2017-12-30T03:03:40.169Z,5.40
2017-12-30T03:05:43.613Z,5.20
2017-12-30T03:07:47.801Z,4.97
2017-12-30T03:09:51.273Z,4.53
2017-12-30T03:11:54.716Z,4.90
2017-12-30T03:13:58.177Z,6.00
2017-12-30T03:16:01.629Z,5.93
2017-12-30T03:18:05.801Z,4.60
2017-12-30T03:20:09.298Z,4.70
2017-12-30T03:22:12.739Z,5.57
2017-12-30T03:24:16.239Z,4.33
2017-12-30T03:26:19.695Z,4.83
2017-12-30T03:28:23.103Z,4.00
2017-12-30T03:30:27.335Z,4.47
2017-12-30T03:32:30.780Z,6.73
2017-12-30T03:34:34.227Z,5.23
2017-12-30T03:36:37.684Z,4.53
2017-12-30T03:38:41.095Z,6.63
2017-12-30T03:40:45.322Z,4.03
2017-12-30T03:42:48.765Z,4.93
2017-12-30T03:44:52.179Z,4.80
2017-12-30T03:46:55.628Z,4.73
2017-12-30T03:48:59.076Z,4.33
2017-12-30T03:51:03.251Z,5.27
2017-12-30T03:53:06.737Z,5.87
2017-12-30T03:55:10.163Z,5.10
2017-12-30T03:57:13.633Z,4.80
2017-12-30T03:59:17.086Z,5.30
2017-12-30T04:01:20.525Z,4.67
2017-12-30T04:03:24.806Z,4.53
2017-12-30T04:05:28.351Z,5.80
2017-12-30T04:07:31.817Z,3.40
2017-12-30T04:09:35.276Z,5.40
2017-12-30T04:11:39.809Z,4.37
2017-12-30T04:13:43.546Z,4.57
2017-12-30T04:15:47.977Z,4.20
2017-12-30T04:17:51.471Z,4.20
2017-12-30T04:19:55.679Z,4.80
2017-12-30T04:21:59.115Z,4.17
2017-12-30T04:24:02.854Z,5.70
2017-12-30T04:26:07.630Z,4.80
2017-12-30T04:28:12.341Z,3.90
2017-12-30T04:30:16.058Z,4.50
2017-12-30T04:32:19.945Z,4.50
2017-12-30T04:34:24.158Z,5.00
2017-12-30T04:36:28.354Z,4.20
2017-12-30T04:38:31.849Z,4.67
2017-12-30T04:40:35.347Z,4.50
2017-12-30T04:42:39.537Z,4.50
2017-12-30T04:44:43.808Z,4.17
2017-12-30T04:46:47.247Z,5.00
2017-12-30T04:48:50.756Z,5.40
2017-12-30T04:50:54.973Z,5.80
2017-12-30T04:52:59.183Z,5.63
2017-12-30T04:55:03.426Z,4.67
2017-12-30T04:57:06.849Z,5.13
2017-12-30T04:59:10.390Z,4.30
2017-12-30T05:01:14.239Z,4.20
2017-12-30T05:03:18.236Z,5.23
2017-12-30T05:05:21.729Z,4.27
2017-12-30T05:07:25.163Z,4.63
2017-12-30T05:09:28.672Z,4.90
2017-12-30T05:11:32.245Z,4.77
2017-12-30T05:13:35.707Z,5.80
2017-12-30T05:15:39.173Z,4.33
2017-12-30T05:17:43.383Z,5.27
2017-12-30T05:19:47.563Z,4.07
2017-12-30T05:21:51.020Z,4.40
2017-12-30T05:23:54.445Z,4.13
2017-12-30T05:25:57.920Z,4.70
2017-12-30T05:28:01.356Z,6.47
2017-12-30T05:30:04.802Z,5.10
2017-12-30T05:32:08.349Z,4.97
2017-12-30T05:34:12.533Z,4.40
2017-12-30T05:36:17.652Z,3.03
2017-12-30T05:38:21.079Z,4.00
2017-12-30T05:40:24.512Z,4.60
2017-12-30T05:42:27.981Z,4.00
2017-12-30T05:44:32.160Z,2.30
2017-12-30T05:46:35.637Z,2.87
2017-12-30T05:48:39.067Z,2.43
2017-12-30T05:50:42.495Z,3.47
2017-12-30T05:52:46.032Z,3.63
2017-12-30T05:54:50.237Z,2.87
2017-12-30T05:56:55.008Z,3.73
2017-12-30T05:58:59.275Z,2.70
2017-12-30T06:01:02.714Z,3.17
2017-12-30T06:03:07.385Z,4.43
2017-12-30T06:05:11.146Z,2.97
2017-12-30T06:07:14.601Z,2.67
2017-12-30T06:09:18.813Z,3.17
2017-12-30T06:11:22.260Z,3.60
2017-12-30T06:13:25.704Z,3.60
2017-12-30T06:15:29.122Z,3.30
2017-12-30T06:17:33.397Z,2.80
2017-12-30T06:19:36.857Z,3.27
2017-12-30T06:21:40.525Z,3.27
2017-12-30T06:23:44.746Z,2.63
2017-12-30T06:25:48.937Z,2.73
2017-12-30T06:27:52.355Z,2.80
2017-12-30T06:29:57.413Z,2.60
2017-12-30T06:32:01.069Z,2.63
2017-12-30T06:34:05.333Z,2.47
2017-12-30T06:36:08.762Z,3.07
2017-12-30T06:38:13.663Z,2.60
2017-12-30T06:40:17.122Z,2.60
2017-12-30T06:42:20.540Z,2.30
2017-12-30T06:44:24.064Z,2.80
2017-12-30T06:46:28.280Z,2.93
2017-12-30T06:48:32.509Z,2.83
2017-12-30T06:50:35.968Z,2.10
2017-12-30T06:52:39.398Z,2.87
2017-12-30T06:54:43.707Z,2.83
2017-12-30T06:56:47.095Z,2.70
2017-12-30T06:58:51.298Z,2.20
2017-12-30T07:00:54.743Z,3.07
2017-12-30T07:02:58.156Z,2.47
2017-12-30T07:05:01.625Z,2.53
2017-12-30T07:07:05.030Z,3.20
2017-12-30T07:09:08.445Z,2.37
2017-12-30T07:11:11.880Z,2.50
2017-12-30T07:13:16.082Z,2.00
2017-12-30T07:15:19.518Z,4.57
2017-12-30T07:17:22.931Z,2.40
2017-12-30T07:19:26.368Z,2.47
2017-12-30T07:21:30.571Z,2.17
2017-12-30T07:23:34.950Z,2.50
2017-12-30T07:25:38.385Z,2.83
2017-12-30T07:27:41.873Z,2.27
2017-12-30T07:29:46.056Z,2.10
2017-12-30T07:31:50.494Z,2.00
2017-12-30T07:33:53.898Z,2.47
2017-12-30T07:35:57.288Z,2.47
2017-12-30T07:38:00.756Z,2.17
2017-12-30T07:40:04.185Z,2.90
2017-12-30T07:42:07.618Z,2.37
2017-12-30T07:44:11.020Z,2.50
2017-12-30T07:46:14.463Z,2.13
2017-12-30T07:48:18.676Z,2.37
2017-12-30T07:50:22.854Z,2.13
2017-12-30T07:52:26.296Z,2.27
2017-12-30T07:54:29.715Z,1.70
2017-12-30T07:56:33.121Z,2.60
2017-12-30T07:58:36.562Z,2.50
2017-12-30T08:00:40.766Z,2.00
2017-12-30T08:02:44.242Z,2.27
2017-12-30T08:04:47.671Z,2.30
2017-12-30T08:06:51.078Z,2.50
2017-12-30T08:08:55.242Z,1.63
2017-12-30T08:10:58.669Z,2.23
2017-12-30T08:13:02.162Z,1.83
2017-12-30T08:15:06.323Z,2.07
2017-12-30T08:17:09.773Z,2.10
2017-12-30T08:19:15.359Z,2.60
2017-12-30T08:21:19.113Z,1.63
2017-12-30T08:23:22.577Z,1.90
2017-12-30T08:25:26.796Z,2.80
2017-12-30T08:27:31.012Z,2.37
2017-12-30T08:29:35.298Z,2.27
2017-12-30T08:31:38.749Z,2.00
2017-12-30T08:33:42.209Z,2.00
2017-12-30T08:35:46.440Z,2.07
2017-12-30T08:37:49.896Z,1.50
2017-12-30T08:39:54.156Z,1.90
2017-12-30T08:41:57.595Z,1.80
2017-12-30T08:44:01.056Z,1.80
2017-12-30T08:46:04.554Z,2.00
2017-12-30T08:48:08.081Z,2.03
2017-12-30T08:50:12.409Z,1.90
2017-12-30T08:52:16.639Z,1.33
2017-12-30T08:54:20.196Z,1.60
2017-12-30T08:56:23.665Z,1.50
2017-12-30T08:58:27.126Z,2.00
2017-12-30T09:00:31.360Z,1.80
2017-12-30T09:02:34.774Z,2.23
2017-12-30T09:04:38.239Z,1.90
2017-12-30T09:06:41.756Z,1.70
2017-12-30T09:08:46.428Z,1.20
2017-12-30T09:10:49.926Z,1.93
2017-12-30T09:12:53.401Z,2.20
2017-12-30T09:14:56.834Z,1.63
2017-12-30T09:17:00.328Z,1.30
2017-12-30T09:19:04.535Z,1.50
2017-12-30T09:21:09.858Z,1.60
2017-12-30T09:23:14.977Z,1.20
2017-12-30T09:25:18.806Z,1.60
2017-12-30T09:27:22.413Z,1.60
2017-12-30T09:29:25.863Z,1.60
2017-12-30T09:31:29.364Z,1.40
2017-12-30T09:33:33.205Z,1.30
2017-12-30T09:35:39.224Z,1.47
2017-12-30T09:37:43.490Z,1.33
2017-12-30T09:39:47.857Z,1.63
2017-12-30T09:41:51.757Z,1.43
2017-12-30T09:43:55.282Z,1.50
2017-12-30T09:45:58.759Z,1.30
2017-12-30T09:48:02.212Z,1.27
2017-12-30T09:50:05.736Z,1.40
2017-12-30T09:52:09.958Z,1.37
2017-12-30T09:54:14.224Z,1.33
2017-12-30T09:56:18.436Z,1.37
2017-12-30T09:58:21.918Z,1.60
2017-12-30T10:00:25.641Z,1.50
2017-12-30T10:02:30.067Z,1.60
2017-12-30T10:04:33.612Z,1.70
2017-12-30T10:06:37.100Z,1.20
2017-12-30T10:08:41.487Z,1.30
2017-12-30T10:10:44.979Z,1.60
2017-12-30T10:12:48.500Z,1.50
2017-12-30T10:14:52.917Z,1.60
2017-12-30T10:16:56.496Z,1.40
2017-12-30T10:19:02.026Z,1.40
2017-12-30T10:21:05.564Z,1.37
2017-12-30T10:23:10.006Z,1.40
2017-12-30T10:25:13.754Z,1.37
2017-12-30T10:27:17.216Z,1.50
2017-12-30T10:29:20.739Z,1.77
2017-12-30T10:31:24.237Z,1.60
2017-12-30T10:33:27.689Z,1.30
2017-12-30T10:35:31.240Z,1.80
2017-12-30T10:37:35.513Z,1.80
2017-12-30T10:39:39.647Z,2.43
2017-12-30T10:41:43.965Z,2.43
2017-12-30T10:43:47.562Z,1.80
2017-12-30T10:45:51.106Z,1.70
2017-12-30T10:47:54.596Z,1.70
2017-12-30T10:49:58.026Z,1.67
2017-12-30T10:52:01.619Z,1.60
2017-12-30T10:54:05.897Z,1.77
2017-12-30T10:56:09.526Z,2.17
2017-12-30T10:58:13.094Z,1.80
2017-12-30T11:00:18.988Z,1.70
2017-12-30T11:02:22.959Z,1.83
2017-12-30T11:04:27.271Z,1.63
2017-12-30T11:06:31.544Z,1.50
2017-12-30T11:08:35.012Z,2.47
2017-12-30T11:10:38.502Z,2.60
2017-12-30T11:12:42.054Z,2.53
2017-12-30T11:14:47.378Z,2.23
2017-12-30T11:16:50.947Z,2.40
2017-12-30T11:18:58.306Z,2.70
2017-12-30T11:21:01.841Z,2.60
2017-12-30T11:23:05.372Z,2.33
2017-12-30T11:25:10.718Z,3.03
2017-12-30T11:27:15.016Z,2.10
2017-12-30T11:29:18.718Z,2.70
2017-12-30T11:31:22.269Z,2.90
2017-12-30T11:33:25.917Z,2.80
2017-12-30T11:35:30.641Z,2.60
2017-12-30T11:37:34.952Z,2.63
2017-12-30T11:39:38.516Z,2.10
2017-12-30T11:41:44.272Z,2.40
2017-12-30T11:43:49.295Z,2.47
2017-12-30T11:45:53.334Z,2.60
2017-12-30T11:47:56.998Z,2.00
2017-12-30T11:50:02.328Z,3.07
2017-12-30T11:52:11.354Z,2.50
2017-12-30T11:54:18.685Z,2.73
2017-12-30T11:56:23.430Z,2.37
2017-12-30T11:58:26.922Z,2.60
2017-12-30T12:00:30.991Z,2.53
2017-12-30T12:02:34.992Z,3.13
2017-12-30T12:04:39.252Z,3.80
2017-12-30T12:06:43.616Z,2.77
2017-12-30T12:08:47.416Z,2.90
2017-12-30T12:10:51.664Z,3.50
2017-12-30T12:12:59.783Z,3.90
2017-12-30T12:15:04.063Z,2.73
2017-12-30T12:17:07.643Z,3.30
2017-12-30T12:19:11.182Z,3.47
2017-12-30T12:21:15.046Z,2.73
2017-12-30T12:23:19.594Z,2.87
2017-12-30T12:25:23.260Z,2.57
2017-12-30T12:27:27.518Z,2.80
2017-12-30T12:29:30.992Z,3.10
2017-12-30T12:31:34.470Z,3.20
2017-12-30T12:33:38.722Z,2.90
2017-12-30T12:35:42.277Z,2.83
2017-12-30T12:37:46.058Z,2.40
2017-12-30T12:39:49.853Z,3.30
2017-12-30T12:41:53.340Z,2.93
2017-12-30T12:43:56.891Z,2.83
2017-12-30T12:46:00.468Z,3.23
2017-12-30T12:48:04.022Z,3.30
2017-12-30T12:50:07.517Z,2.60
2017-12-30T12:52:11.023Z,2.60
2017-12-30T12:54:14.566Z,3.60
2017-12-30T12:56:18.091Z,5.00
2017-12-30T12:58:21.691Z,3.23
2017-12-30T13:00:25.175Z,3.07
2017-12-30T13:02:28.678Z,3.03
2017-12-30T13:04:33.577Z,3.13
2017-12-30T13:06:37.188Z,3.00
2017-12-30T13:08:40.740Z,3.53
2017-12-30T13:10:44.307Z,4.30
2017-12-30T13:12:47.802Z,5.10
2017-12-30T13:14:52.120Z,3.10
2017-12-30T13:16:55.615Z,4.07
2017-12-30T13:18:59.147Z,4.43
2017-12-30T13:21:02.725Z,4.37
2017-12-30T13:23:07.404Z,4.80
2017-12-30T13:25:12.395Z,4.83
2017-12-30T13:27:16.620Z,3.50
2017-12-30T13:29:20.496Z,3.30
2017-12-30T13:31:24.508Z,4.10
2017-12-30T13:33:29.262Z,4.50
2017-12-30T13:35:32.948Z,4.20
2017-12-30T13:37:36.670Z,4.10
2017-12-30T13:39:40.301Z,4.70
2017-12-30T13:41:43.825Z,4.80
2017-12-30T13:43:49.211Z,4.10
2017-12-30T13:45:53.049Z,3.63
2017-12-30T13:47:56.607Z,4.40
2017-12-30T13:50:00.438Z,4.10
2017-12-30T13:52:05.038Z,6.07
2017-12-30T13:54:10.354Z,9.33
2017-12-30T13:56:14.455Z,7.57
2017-12-30T13:58:18.129Z,6.33
2017-12-30T14:00:22.438Z,5.10
2017-12-30T14:02:26.515Z,4.67
2017-12-30T14:04:30.035Z,5.07
2017-12-30T14:06:34.079Z,4.53
2017-12-30T14:08:37.742Z,4.13
2017-12-30T14:10:41.293Z,3.60
2017-12-30T14:12:45.034Z,4.40
2017-12-30T14:14:48.614Z,4.47
2017-12-30T14:16:52.180Z,4.40
2017-12-30T14:18:57.649Z,5.07
2017-12-30T14:21:01.332Z,4.27
2017-12-30T14:23:05.775Z,6.40
2017-12-30T14:25:10.410Z,4.83
2017-12-30T14:27:14.489Z,4.00
2017-12-30T14:29:18.032Z,4.00
2017-12-30T14:31:22.372Z,4.40
2017-12-30T14:33:25.905Z,3.67
2017-12-30T14:35:29.405Z,3.80
2017-12-30T14:37:32.912Z,3.80
2017-12-30T14:39:36.496Z,3.60
2017-12-30T14:41:40.036Z,3.43
2017-12-30T14:43:44.271Z,3.67
2017-12-30T14:45:47.738Z,5.20
2017-12-30T14:47:51.303Z,3.83
2017-12-30T14:49:54.879Z,3.77
2017-12-30T14:51:59.164Z,4.20
2017-12-30T14:54:02.830Z,4.23
2017-12-30T14:56:06.312Z,4.90
2017-12-30T14:58:09.851Z,6.50
2017-12-30T15:00:13.330Z,5.10
2017-12-30T15:02:16.846Z,5.03
2017-12-30T15:04:21.914Z,4.70
2017-12-30T15:06:25.427Z,5.90
2017-12-30T15:08:28.912Z,4.20
2017-12-30T15:10:32.372Z,3.77
2017-12-30T15:12:35.967Z,4.30
2017-12-30T15:14:39.511Z,3.33
2017-12-30T15:16:43.756Z,4.03
2017-12-30T15:18:47.249Z,5.13
2017-12-30T15:20:51.953Z,3.30
2017-12-30T15:22:56.259Z,4.13
2017-12-30T15:24:59.763Z,3.07
2017-12-30T15:27:03.256Z,3.50
2017-12-30T15:29:06.696Z,3.27
2017-12-30T15:31:10.295Z,2.77
2017-12-30T15:33:13.951Z,3.50
2017-12-30T15:35:17.480Z,3.80
2017-12-30T15:37:20.934Z,4.20
2017-12-30T15:39:25.188Z,2.87
2017-12-30T15:41:28.752Z,3.37
2017-12-30T15:43:33.058Z,2.70
2017-12-30T15:45:37.341Z,2.80
2017-12-30T15:47:40.905Z,3.10
2017-12-30T15:49:44.363Z,3.97
2017-12-30T15:51:48.664Z,3.53
2017-12-30T15:53:52.178Z,3.60
2017-12-30T15:55:56.367Z,2.80
2017-12-30T15:58:01.129Z,3.20
2017-12-30T16:00:05.331Z,2.90
2017-12-30T16:02:09.366Z,4.20
2017-12-30T16:04:13.677Z,4.70
2017-12-30T16:06:17.192Z,3.87
2017-12-30T16:08:20.671Z,3.67
2017-12-30T16:10:24.149Z,5.27
2017-12-30T16:12:28.873Z,4.57
2017-12-30T16:14:32.363Z,3.63
2017-12-30T16:16:35.792Z,3.50
2017-12-30T16:18:39.250Z,4.20
2017-12-30T16:20:42.804Z,3.30
2017-12-30T16:22:47.886Z,4.40
2017-12-30T16:24:51.372Z,3.70
2017-12-30T16:26:54.819Z,3.17
2017-12-30T16:28:58.856Z,3.40
2017-12-30T16:31:02.298Z,4.03
2017-12-30T16:33:05.746Z,2.80
2017-12-30T16:35:10.007Z,3.20
2017-12-30T16:37:15.061Z,2.73
2017-12-30T16:39:19.337Z,4.20
2017-12-30T16:41:23.485Z,3.97
2017-12-30T16:43:27.086Z,4.00
2017-12-30T16:45:30.560Z,2.83
2017-12-30T16:47:34.671Z,4.23
2017-12-30T16:49:38.143Z,3.20
2017-12-30T16:51:42.501Z,3.10
2017-12-30T16:53:46.572Z,3.17
2017-12-30T16:55:50.703Z,2.80
2017-12-30T16:57:54.160Z,4.33
2017-12-30T16:59:57.641Z,3.43
2017-12-30T17:02:01.902Z,2.70
2017-12-30T17:04:06.681Z,3.53
2017-12-30T17:06:10.916Z,3.67
2017-12-30T17:08:14.488Z,3.43
2017-12-30T17:10:18.801Z,3.07
2017-12-30T17:12:23.294Z,3.37
2017-12-30T17:14:28.831Z,4.67
2017-12-30T17:16:33.103Z,2.80
2017-12-30T17:18:36.577Z,2.87
2017-12-30T17:20:40.861Z,3.53
2017-12-30T17:22:45.072Z,3.40
2017-12-30T17:24:48.519Z,2.90
2017-12-30T17:26:52.022Z,4.07
2017-12-30T17:28:55.443Z,3.30
2017-12-30T17:30:59.729Z,2.83
2017-12-30T17:33:03.161Z,2.10
2017-12-30T17:35:08.488Z,2.80
2017-12-30T17:37:12.750Z,2.97
2017-12-30T17:39:16.201Z,2.70
2017-12-30T17:41:20.475Z,2.67
2017-12-30T17:43:23.902Z,3.50
2017-12-30T17:45:27.412Z,4.00
2017-12-30T17:47:30.896Z,4.30
2017-12-30T17:49:34.393Z,4.80
2017-12-30T17:51:37.994Z,3.60
2017-12-30T17:53:42.078Z,3.90
2017-12-30T17:55:45.642Z,3.60
2017-12-30T17:57:49.099Z,3.80
2017-12-30T17:59:53.302Z,3.27
2017-12-30T18:01:56.739Z,3.93
2017-12-30T18:04:01.080Z,3.40
2017-12-30T18:06:04.512Z,3.30
2017-12-30T18:08:08.104Z,3.50
2017-12-30T18:10:12.408Z,4.30
2017-12-30T18:12:15.968Z,4.00
2017-12-30T18:14:20.334Z,3.60
2017-12-30T18:16:25.480Z,3.60
2017-12-30T18:18:29.578Z,5.30
2017-12-30T18:20:33.794Z,3.07
2017-12-30T18:22:37.995Z,7.30
2017-12-30T18:24:42.491Z,10.20
2017-12-30T18:26:46.223Z,11.27
2017-12-30T18:28:51.263Z,7.00
2017-12-30T18:30:54.853Z,4.60
2017-12-30T18:32:59.835Z,4.30
2017-12-30T18:35:04.212Z,3.33
2017-12-30T18:37:07.759Z,5.67
2017-12-30T18:39:11.294Z,6.43
2017-12-30T18:41:15.930Z,4.77
2017-12-30T18:43:21.077Z,4.00
2017-12-30T18:45:25.764Z,3.30
2017-12-30T18:47:29.350Z,2.90
2017-12-30T18:49:34.413Z,2.60
2017-12-30T18:51:38.224Z,2.50
2017-12-30T18:53:43.242Z,2.63
2017-12-30T18:55:46.854Z,2.13
2017-12-30T18:57:50.661Z,2.30
2017-12-30T18:59:54.139Z,3.10
2017-12-30T19:01:58.460Z,2.40
2017-12-30T19:04:03.170Z,1.90
2017-12-30T19:06:06.783Z,2.63
2017-12-30T19:08:10.377Z,6.80
2017-12-30T19:10:14.104Z,3.40
2017-12-30T19:12:19.318Z,4.23
2017-12-30T19:14:25.242Z,2.20
2017-12-30T19:16:30.528Z,2.33
2017-12-30T19:18:35.991Z,2.17
2017-12-30T19:20:40.890Z,4.50
2017-12-30T19:22:44.976Z,3.53
2017-12-30T19:24:49.336Z,5.30
2017-12-30T19:26:53.628Z,6.07
2017-12-30T19:28:57.130Z,4.90
2017-12-30T19:31:01.377Z,4.20
2017-12-30T19:33:05.707Z,4.93
2017-12-30T19:35:09.947Z,4.70
2017-12-30T19:37:13.433Z,3.50
2017-12-30T19:39:16.924Z,3.23
2017-12-30T19:41:20.373Z,3.50
2017-12-30T19:43:24.007Z,2.40
2017-12-30T19:45:28.424Z,2.80
2017-12-30T19:47:33.134Z,3.93
2017-12-30T19:49:36.856Z,3.70
2017-12-30T19:51:40.792Z,1.60
2017-12-30T19:53:44.430Z,2.00
2017-12-30T19:55:47.854Z,1.90
2017-12-30T19:57:51.470Z,1.63
2017-12-30T19:59:55.187Z,1.80
2017-12-30T20:01:59.595Z,1.70
2017-12-30T20:04:03.241Z,1.63
2017-12-30T20:06:08.408Z,1.80
2017-12-30T20:08:11.986Z,2.00
2017-12-30T20:10:15.505Z,2.83
2017-12-30T20:12:19.079Z,2.30
2017-12-30T20:14:22.561Z,1.90
2017-12-30T20:16:27.643Z,1.70
2017-12-30T20:18:31.138Z,2.30
2017-12-30T20:20:34.618Z,2.20
2017-12-30T20:22:38.516Z,2.50
2017-12-30T20:24:43.266Z,2.13
2017-12-30T20:26:46.915Z,3.27
2017-12-30T20:28:51.333Z,2.43
2017-12-30T20:30:55.543Z,2.70
2017-12-30T20:32:59.786Z,3.83
2017-12-30T20:35:05.211Z,3.17
2017-12-30T20:37:09.202Z,4.60
2017-12-30T20:39:14.129Z,3.87
2017-12-30T20:41:17.690Z,5.07
2017-12-30T20:43:21.174Z,4.03
2017-12-30T20:45:24.839Z,4.60
2017-12-30T20:47:28.863Z,4.37
2017-12-30T20:49:32.803Z,6.03
2017-12-30T20:51:36.336Z,4.97
2017-12-30T20:53:39.797Z,5.10
2017-12-30T20:55:43.275Z,6.03
2017-12-30T20:57:46.721Z,5.70
2017-12-30T20:59:50.194Z,4.30
2017-12-30T21:01:53.696Z,3.40
2017-12-30T21:03:58.282Z,3.40
2017-12-30T21:06:01.776Z,3.60
2017-12-30T21:08:05.930Z,4.93
2017-12-30T21:10:09.607Z,7.63
2017-12-30T21:12:14.161Z,9.23
2017-12-30T21:14:18.026Z,9.90
2017-12-30T21:16:21.561Z,6.67
2017-12-30T21:18:25.458Z,4.90
2017-12-30T21:20:29.334Z,6.70
2017-12-30T21:22:33.581Z,8.17
2017-12-30T21:24:37.024Z,4.60
2017-12-30T21:26:41.178Z,3.30
2017-12-30T21:28:45.513Z,2.97
2017-12-30T21:30:49.268Z,2.37
2017-12-30T21:32:52.925Z,2.27
2017-12-30T21:34:56.639Z,2.90
2017-12-30T21:37:00.240Z,2.80
2017-12-30T21:39:03.805Z,2.13
2017-12-30T21:41:07.332Z,2.63
2017-12-30T21:43:11.987Z,1.60
2017-12-30T21:45:15.534Z,1.50
2017-12-30T21:47:20.552Z,1.20
2017-12-30T21:49:25.016Z,1.40
2017-12-30T21:51:29.421Z,4.33
2017-12-30T21:53:33.701Z,3.70
2017-12-30T21:55:37.146Z,2.13
2017-12-30T21:57:41.389Z,2.63
2017-12-30T21:59:45.061Z,1.27
2017-12-30T22:01:52.359Z,1.53
2017-12-30T22:03:58.613Z,1.77
2017-12-30T22:06:02.614Z,2.20
2017-12-30T22:08:06.897Z,1.70
2017-12-30T22:10:10.943Z,1.50
2017-12-30T22:12:14.812Z,1.67
2017-12-30T22:14:18.554Z,1.60
2017-12-30T22:16:23.915Z,1.60
2017-12-30T22:18:28.266Z,2.67
2017-12-30T22:20:31.899Z,2.10
2017-12-30T22:22:35.528Z,2.57
2017-12-30T22:24:39.065Z,2.67
2017-12-30T22:26:43.074Z,2.20
2017-12-30T22:28:46.798Z,2.70
2017-12-30T22:30:51.183Z,2.13
2017-12-30T22:32:55.723Z,2.70
2017-12-30T22:35:00.166Z,2.53
2017-12-30T22:37:03.620Z,2.50
2017-12-30T22:39:07.151Z,2.63
2017-12-30T22:41:10.591Z,2.20
2017-12-30T22:43:14.389Z,2.30
2017-12-30T22:45:17.894Z,1.70
2017-12-30T22:47:21.385Z,2.30
2017-12-30T22:49:24.917Z,1.97
2017-12-30T22:51:29.224Z,1.80
2017-12-30T22:53:33.342Z,2.53
2017-12-30T22:55:37.698Z,3.10
2017-12-30T22:57:41.572Z,2.40
2017-12-30T22:59:45.687Z,2.43
2017-12-30T23:01:49.128Z,2.37
2017-12-30T23:03:52.556Z,2.73
2017-12-30T23:05:56.194Z,2.83
2017-12-30T23:07:59.659Z,3.00
2017-12-30T23:10:03.201Z,3.40
2017-12-30T23:12:07.601Z,4.30
2017-12-30T23:14:11.067Z,3.17
2017-12-30T23:16:14.786Z,2.70
2017-12-30T23:18:18.562Z,3.23
2017-12-30T23:20:23.076Z,2.83
2017-12-30T23:22:26.768Z,2.23
2017-12-30T23:24:30.474Z,1.20
2017-12-30T23:26:37.222Z,1.40
2017-12-30T23:28:42.175Z,1.47
2017-12-30T23:30:46.056Z,1.80
2017-12-30T23:32:50.471Z,1.90
2017-12-30T23:34:54.750Z,1.87
2017-12-30T23:36:58.635Z,2.20
2017-12-30T23:39:02.851Z,2.33
2017-12-30T23:41:06.731Z,2.10
2017-12-30T23:43:11.068Z,2.23
2017-12-30T23:45:14.666Z,2.40
2017-12-30T23:47:18.995Z,3.60
2017-12-30T23:49:23.049Z,2.37
2017-12-30T23:51:27.383Z,2.23
2017-12-30T23:53:31.658Z,2.20
2017-12-30T23:55:35.098Z,2.33
2017-12-30T23:57:38.521Z,2.97
2017-12-30T23:59:42.029Z,2.67
